Time;durP1;ratioP1;P1;durP2;ratioP2;P2;SDS_P1;SDS_P2;PMS_P1;PMS_P2;Temp;Humidity;BMP_temperature;BMP_pressure;BME280_temperature;BME280_humidity;BME280_pressure;Samples;Min_cycle;Max_cycle;Signal;HPM_P1;HPM_P2
2022/12/11 00:00:04;;;;;;;9.63;8.20;;;-0.80;99.90;;;;;;5109000;28;20224;-73
2022/12/11 00:02:30;;;;;;;10.77;7.87;;;-0.80;99.90;;;;;;5108012;28;20218;-73
2022/12/11 00:04:57;;;;;;;8.53;7.63;;;-0.90;99.90;;;;;;5088095;28;20613;-73
2022/12/11 00:07:24;;;;;;;9.30;7.90;;;-0.90;99.90;;;;;;5088750;28;20573;-73
2022/12/11 00:09:51;;;;;;;9.10;8.03;;;-0.80;99.90;;;;;;5088776;28;20202;-74
2022/12/11 00:12:19;;;;;;;9.33;7.63;;;-0.80;99.90;;;;;;5087684;28;20300;-74
2022/12/11 00:14:46;;;;;;;9.30;8.23;;;-0.90;99.90;;;;;;5088637;28;20302;-74
2022/12/11 00:17:13;;;;;;;9.70;8.20;;;-1.00;99.90;;;;;;5088321;28;20264;-74
2022/12/11 00:19:40;;;;;;;9.97;7.90;;;-1.10;99.90;;;;;;5102096;28;20326;-73
2022/12/11 00:22:07;;;;;;;9.67;8.03;;;-1.10;99.90;;;;;;5108536;28;20293;-73
2022/12/11 00:24:34;;;;;;;9.33;7.50;;;-1.00;99.90;;;;;;5108289;28;20225;-74
2022/12/11 00:27:01;;;;;;;8.40;7.47;;;-1.10;99.90;;;;;;5108608;28;20292;-73
2022/12/11 00:29:29;;;;;;;9.63;7.93;;;-1.00;99.90;;;;;;5108086;28;20754;-74
2022/12/11 00:31:56;;;;;;;9.87;8.20;;;-1.00;99.90;;;;;;5101706;28;20669;-73
2022/12/11 00:34:23;;;;;;;9.83;7.93;;;-1.10;99.90;;;;;;5088426;28;20305;-74
2022/12/11 00:36:50;;;;;;;9.40;8.40;;;-1.10;99.90;;;;;;5088170;28;20206;-73
2022/12/11 00:39:17;;;;;;;10.30;8.77;;;-1.10;99.90;;;;;;5088084;28;20252;-73
2022/12/11 00:41:44;;;;;;;10.50;8.57;;;-1.10;99.90;;;;;;5099419;28;20700;-73
2022/12/11 00:44:11;;;;;;;12.43;9.63;;;-1.10;99.90;;;;;;5108262;28;20256;-73
2022/12/11 00:46:39;;;;;;;9.93;8.30;;;-1.20;99.90;;;;;;5108313;28;20683;-73
2022/12/11 00:49:06;;;;;;;10.70;8.97;;;-1.20;99.90;;;;;;5088413;28;20551;-73
2022/12/11 00:51:33;;;;;;;12.77;8.50;;;-1.20;99.90;;;;;;5105032;28;20317;-73
2022/12/11 00:54:00;;;;;;;11.10;8.63;;;-1.20;99.90;;;;;;5106446;28;20205;-73
2022/12/11 00:56:27;;;;;;;10.20;8.40;;;-1.20;99.90;;;;;;5108031;28;20575;-73
2022/12/11 00:58:54;;;;;;;11.30;8.57;;;-1.20;99.90;;;;;;5108325;28;20300;-73
2022/12/11 01:01:23;;;;;;;11.70;8.30;;;-1.20;99.90;;;;;;5108291;28;20304;-73
2022/12/11 01:03:52;;;;;;;11.00;8.57;;;-1.20;99.90;;;;;;5108060;28;20313;-73
2022/12/11 01:06:21;;;;;;;10.07;8.60;;;-1.20;99.90;;;;;;5107249;28;20233;-73
2022/12/11 01:10:22;;;;;;;10.87;8.30;;;-1.20;99.90;;;;;;5108172;28;20242;-73
2022/12/11 01:11:36;;;;;;;10.33;7.73;;;-1.20;99.90;;;;;;5107937;28;20567;-73
2022/12/11 01:14:03;;;;;;;13.40;9.50;;;-1.20;99.90;;;;;;5108059;28;20205;-74
2022/12/11 01:16:30;;;;;;;10.07;7.87;;;-1.20;99.90;;;;;;5089075;28;20325;-73
2022/12/11 01:18:59;;;;;;;9.60;8.03;;;-1.20;99.90;;;;;;5103480;28;20296;-74
2022/12/11 01:21:26;;;;;;;11.20;8.53;;;-1.30;99.90;;;;;;5107714;28;20332;-73
2022/12/11 01:23:53;;;;;;;9.70;8.70;;;-1.20;99.90;;;;;;5110641;28;20236;-73
2022/12/11 01:26:20;;;;;;;11.77;8.63;;;-1.10;99.90;;;;;;5112187;28;20297;-73
2022/12/11 01:28:50;;;;;;;10.97;9.10;;;-1.10;99.90;;;;;;5112199;28;20239;-73
2022/12/11 01:31:18;;;;;;;10.47;8.23;;;-1.10;99.90;;;;;;5111495;28;20217;-71
2022/12/11 01:33:45;;;;;;;10.60;7.90;;;-1.10;99.90;;;;;;5112093;28;20208;-71
2022/12/11 01:36:15;;;;;;;9.77;8.40;;;-1.00;99.90;;;;;;5111603;28;20693;-72
2022/12/11 01:38:42;;;;;;;9.60;8.60;;;-1.00;99.90;;;;;;5112095;28;20289;-73
2022/12/11 01:41:09;;;;;;;12.43;8.50;;;-1.00;99.90;;;;;;5109544;28;20317;-73
2022/12/11 01:43:56;;;;;;;9.30;8.23;;;-1.00;99.90;;;;;;5111785;28;20291;-73
2022/12/11 01:46:23;;;;;;;9.43;7.77;;;-1.00;99.90;;;;;;5112078;28;20212;-73
2022/12/11 01:48:50;;;;;;;8.43;7.57;;;-1.00;99.90;;;;;;5106535;28;20233;-73
2022/12/11 01:51:18;;;;;;;10.47;7.90;;;-1.00;99.90;;;;;;5108094;28;20863;-73
2022/12/11 01:53:50;;;;;;;10.00;8.30;;;-1.10;99.90;;;;;;5095639;28;20293;-74
2022/12/11 01:56:18;;;;;;;9.93;8.20;;;-1.20;99.90;;;;;;5111372;28;20225;-73
2022/12/11 01:58:50;;;;;;;9.07;7.43;;;-1.30;99.90;;;;;;5111402;28;20289;-73
2022/12/11 02:01:24;;;;;;;8.87;7.97;;;-1.30;99.90;;;;;;5111342;28;20197;-73
2022/12/11 02:03:52;;;;;;;11.23;7.93;;;-1.30;99.90;;;;;;5105251;28;20704;-71
2022/12/11 02:06:35;;;;;;;9.80;8.23;;;-1.30;99.90;;;;;;5090491;28;20770;-71
2022/12/11 02:09:03;;;;;;;10.17;7.67;;;-1.30;99.90;;;;;;5104816;28;20194;-71
2022/12/11 02:11:38;;;;;;;9.27;7.50;;;-1.20;99.90;;;;;;5102880;28;20685;-71
2022/12/11 02:14:12;;;;;;;9.17;7.60;;;-1.20;99.90;;;;;;5095922;28;20297;-71
2022/12/11 02:16:46;;;;;;;8.33;7.53;;;-1.20;99.90;;;;;;5103552;28;20333;-71
2022/12/11 02:19:28;;;;;;;9.07;7.67;;;-1.20;99.90;;;;;;5111298;28;20198;-71
2022/12/11 02:21:57;;;;;;;9.13;7.93;;;-1.10;99.90;;;;;;5090555;28;20278;-71
2022/12/11 02:24:47;;;;;;;11.40;8.60;;;-1.10;99.90;;;;;;5090455;28;20262;-73
2022/12/11 02:27:36;;;;;;;8.83;7.53;;;-1.10;99.90;;;;;;5105109;28;20204;-73
2022/12/11 02:30:07;;;;;;;7.93;7.13;;;-1.10;99.90;;;;;;5090633;28;20285;-71
2022/12/11 02:32:40;;;;;;;11.03;7.90;;;-1.00;99.90;;;;;;5097464;28;20288;-71
2022/12/11 02:35:13;;;;;;;8.60;7.33;;;-1.00;99.90;;;;;;5110891;28;20249;-71
2022/12/11 02:37:44;;;;;;;10.90;8.10;;;-1.00;99.90;;;;;;5110978;28;20242;-73
2022/12/11 02:40:14;;;;;;;8.90;8.00;;;-1.00;99.90;;;;;;5099391;28;20261;-73
2022/12/11 02:42:44;;;;;;;8.57;7.43;;;-1.00;99.90;;;;;;5090318;28;20279;-73
2022/12/11 02:45:13;;;;;;;8.63;7.53;;;-1.00;99.90;;;;;;5089863;28;20321;-73
2022/12/11 02:47:43;;;;;;;9.23;7.93;;;-1.00;99.90;;;;;;5090080;28;20298;-71
2022/12/11 02:50:13;;;;;;;11.53;8.00;;;-1.10;99.90;;;;;;5101465;28;20305;-71
2022/12/11 02:52:42;;;;;;;8.87;7.90;;;-1.10;99.90;;;;;;5110842;28;20288;-71
2022/12/11 02:55:12;;;;;;;8.97;7.50;;;-1.10;99.90;;;;;;5109956;28;20268;-71
2022/12/11 02:57:45;;;;;;;8.10;7.30;;;-1.20;99.90;;;;;;5110360;28;20233;-71
2022/12/11 03:00:15;;;;;;;9.17;7.47;;;-1.10;99.90;;;;;;5090852;28;20286;-71
2022/12/11 03:02:42;;;;;;;9.47;8.27;;;-1.10;99.90;;;;;;5089739;28;20212;-71
2022/12/11 03:05:10;;;;;;;9.43;8.00;;;-1.20;99.90;;;;;;5089764;28;20229;-72
2022/12/11 03:07:39;;;;;;;7.83;7.13;;;-1.10;99.90;;;;;;5096573;28;20653;-72
2022/12/11 03:10:09;;;;;;;9.50;7.60;;;-1.10;99.90;;;;;;5109620;28;20285;-72
2022/12/11 03:12:39;;;;;;;9.53;7.53;;;-1.20;99.90;;;;;;5110102;28;20296;-72
2022/12/11 03:15:10;;;;;;;9.60;7.90;;;-1.20;99.90;;;;;;5109993;28;20316;-72
2022/12/11 03:17:50;;;;;;;8.93;7.20;;;-1.10;99.90;;;;;;5110097;28;20202;-72
2022/12/11 03:20:24;;;;;;;9.70;7.80;;;-1.10;99.90;;;;;;5109650;28;20208;-72
2022/12/11 03:22:57;;;;;;;9.50;7.77;;;-1.20;99.90;;;;;;5101877;28;20281;-72
2022/12/11 03:25:32;;;;;;;9.03;7.60;;;-1.10;99.90;;;;;;5109778;28;20234;-72
2022/12/11 03:28:06;;;;;;;8.53;7.63;;;-1.10;99.90;;;;;;5109495;28;20283;-72
2022/12/11 03:30:36;;;;;;;10.03;7.80;;;-1.10;99.90;;;;;;5100312;28;20200;-72
2022/12/11 03:33:07;;;;;;;12.33;8.00;;;-1.10;99.90;;;;;;5104274;28;20720;-72
2022/12/11 03:35:38;;;;;;;9.80;7.87;;;-1.10;99.90;;;;;;5097774;28;20659;-72
2022/12/11 03:38:10;;;;;;;9.47;7.50;;;-1.10;99.90;;;;;;5109495;28;20259;-72
2022/12/11 03:40:38;;;;;;;9.03;7.87;;;-1.10;99.90;;;;;;5108958;28;20272;-72
2022/12/11 03:43:07;;;;;;;9.90;7.83;;;-1.00;99.90;;;;;;5109173;28;20245;-72
2022/12/11 03:45:34;;;;;;;9.47;8.27;;;-1.00;99.90;;;;;;5101716;28;20374;-72
2022/12/11 03:48:06;;;;;;;8.80;7.90;;;-1.10;99.90;;;;;;5088695;28;20294;-72
2022/12/11 03:50:35;;;;;;;8.37;7.47;;;-1.00;99.90;;;;;;5097793;28;20198;-72
2022/12/11 03:53:04;;;;;;;8.50;7.60;;;-1.00;99.90;;;;;;5108975;27;20816;-72
2022/12/11 03:55:33;;;;;;;9.87;7.67;;;-1.00;99.90;;;;;;5091391;28;20211;-72
2022/12/11 03:58:00;;;;;;;9.93;7.97;;;-1.00;99.90;;;;;;5108476;28;20194;-72
2022/12/11 04:00:28;;;;;;;10.77;7.70;;;-1.00;99.90;;;;;;5105718;28;20266;-72
2022/12/11 04:03:13;;;;;;;8.43;7.43;;;-1.00;99.90;;;;;;5095021;28;20244;-72
2022/12/11 04:05:44;;;;;;;8.50;7.47;;;-1.00;99.90;;;;;;5089000;28;20226;-72
2022/12/11 04:08:11;;;;;;;8.63;7.73;;;-1.00;99.90;;;;;;5088815;28;20279;-73
2022/12/11 04:10:38;;;;;;;8.27;7.43;;;-1.00;99.90;;;;;;5105702;28;20285;-72
2022/12/11 04:13:05;;;;;;;9.80;7.70;;;-1.00;99.90;;;;;;5108569;28;20298;-72
2022/12/11 04:15:31;;;;;;;11.33;8.13;;;-1.00;99.90;;;;;;5108971;28;20226;-72
2022/12/11 04:26:14;;;;;;;9.10;7.80;;;-1.00;99.90;;;;;;5104040;28;20235;-72
2022/12/11 04:28:42;;;;;;;9.07;7.70;;;-1.00;99.90;;;;;;5108208;28;20735;-72
2022/12/11 04:31:12;;;;;;;8.47;7.50;;;-1.00;99.90;;;;;;5108543;28;20242;-72
2022/12/11 04:33:39;;;;;;;10.30;7.97;;;-1.00;99.90;;;;;;5101783;28;20289;-72
2022/12/11 04:36:09;;;;;;;8.57;7.47;;;-0.90;99.90;;;;;;5107609;28;20292;-72
2022/12/11 04:38:36;;;;;;;9.03;7.60;;;-1.00;99.90;;;;;;5092279;28;20647;-72
2022/12/11 04:41:09;;;;;;;8.77;7.60;;;-0.90;99.90;;;;;;5087281;28;20824;-72
2022/12/11 04:43:37;;;;;;;10.17;7.63;;;-1.00;99.90;;;;;;5088016;28;20276;-72
2022/12/11 04:46:06;;;;;;;11.57;8.50;;;-1.00;99.90;;;;;;5087729;28;20293;-72
2022/12/11 04:48:34;;;;;;;10.70;8.43;;;-1.00;99.90;;;;;;5090488;28;20276;-72
2022/12/11 04:51:00;;;;;;;11.10;8.47;;;-1.00;99.90;;;;;;5107999;28;20300;-72
2022/12/11 04:53:29;;;;;;;9.53;8.40;;;-1.00;99.90;;;;;;5108133;28;20292;-72
2022/12/11 04:55:56;;;;;;;10.77;7.90;;;-1.00;99.90;;;;;;5107799;28;20209;-72
2022/12/11 04:58:24;;;;;;;9.83;8.23;;;-1.10;99.90;;;;;;5093872;28;20301;-72
2022/12/11 05:00:51;;;;;;;10.47;7.50;;;-1.10;99.90;;;;;;5087720;28;20618;-72
2022/12/11 05:03:18;;;;;;;12.20;8.30;;;-1.10;99.90;;;;;;5087804;28;20313;-72
2022/12/11 05:05:49;;;;;;;10.67;7.90;;;-1.10;99.90;;;;;;5087394;28;20321;-72
2022/12/11 05:08:16;;;;;;;10.77;8.07;;;-1.20;99.90;;;;;;5087759;28;20285;-72
2022/12/11 05:10:44;;;;;;;8.17;7.37;;;-1.20;99.90;;;;;;5098256;28;20304;-72
2022/12/11 05:13:11;;;;;;;11.30;8.43;;;-1.20;99.90;;;;;;5088230;28;20626;-72
2022/12/11 05:15:39;;;;;;;11.67;8.33;;;-1.10;99.90;;;;;;5099393;28;20818;-72
2022/12/11 05:18:06;;;;;;;9.07;7.73;;;-1.10;99.90;;;;;;5107893;28;20293;-72
2022/12/11 05:20:33;;;;;;;10.23;8.07;;;-1.10;99.90;;;;;;5105397;28;20229;-72
2022/12/11 05:23:00;;;;;;;9.00;7.93;;;-1.10;99.90;;;;;;5100755;28;20301;-72
2022/12/11 05:25:27;;;;;;;9.87;8.13;;;-1.10;99.90;;;;;;5095171;28;20226;-72
2022/12/11 05:27:55;;;;;;;9.97;7.73;;;-1.10;99.90;;;;;;5087529;28;20203;-72
2022/12/11 05:30:22;;;;;;;12.13;8.40;;;-1.10;99.90;;;;;;5087388;28;20301;-72
2022/12/11 05:32:49;;;;;;;10.00;7.80;;;-1.10;99.90;;;;;;5092840;28;20575;-72
2022/12/11 05:35:16;;;;;;;8.93;8.03;;;-1.00;99.90;;;;;;5091741;28;20712;-72
2022/12/11 05:37:43;;;;;;;9.87;8.13;;;-1.00;99.90;;;;;;5087029;28;20293;-72
2022/12/11 05:40:11;;;;;;;11.30;7.83;;;-1.00;99.90;;;;;;5086642;28;20327;-72
2022/12/11 05:42:38;;;;;;;9.83;8.20;;;-1.00;99.90;;;;;;5087022;28;20210;-72
2022/12/11 05:45:07;;;;;;;10.70;8.03;;;-1.00;99.90;;;;;;5093091;28;20308;-72
2022/12/11 05:47:34;;;;;;;9.87;8.03;;;-1.00;99.90;;;;;;5107561;28;20256;-72
2022/12/11 05:50:02;;;;;;;10.90;8.57;;;-1.00;99.90;;;;;;5107320;28;20209;-72
2022/12/11 05:52:31;;;;;;;8.87;7.97;;;-1.00;99.90;;;;;;5107281;28;20346;-72
2022/12/11 05:54:58;;;;;;;10.37;8.33;;;-1.00;99.90;;;;;;5107241;28;20285;-72
2022/12/11 05:57:24;;;;;;;10.23;8.30;;;-1.00;99.90;;;;;;5095687;28;20210;-72
2022/12/11 05:59:51;;;;;;;10.40;8.17;;;-1.00;99.90;;;;;;5090751;28;20568;-73
2022/12/11 06:02:20;;;;;;;10.73;7.57;;;-1.00;99.90;;;;;;5107245;28;20735;-72
2022/12/11 06:04:47;;;;;;;11.00;8.03;;;-1.00;99.90;;;;;;5107032;28;20241;-72
2022/12/11 06:07:14;;;;;;;9.47;8.00;;;-1.00;99.90;;;;;;5107434;28;20246;-72
2022/12/11 06:09:41;;;;;;;11.50;8.27;;;-0.90;99.90;;;;;;5095698;28;20634;-72
2022/12/11 06:12:07;;;;;;;9.97;8.97;;;-0.90;99.90;;;;;;5105960;28;20237;-72
2022/12/11 06:14:34;;;;;;;10.17;8.27;;;-0.90;99.90;;;;;;5111252;28;20237;-72
2022/12/11 06:17:01;;;;;;;8.47;7.40;;;-0.90;99.90;;;;;;5109026;28;20299;-72
2022/12/11 06:19:29;;;;;;;9.63;8.07;;;-0.90;99.90;;;;;;5090473;28;20297;-72
2022/12/11 06:21:56;;;;;;;11.23;8.33;;;-0.90;99.90;;;;;;5094785;28;20210;-72
2022/12/11 06:24:23;;;;;;;10.03;8.13;;;-0.90;99.90;;;;;;5110879;28;20317;-72
2022/12/11 06:26:50;;;;;;;10.43;8.53;;;-0.90;99.90;;;;;;5110770;28;20326;-72
2022/12/11 06:29:17;;;;;;;10.27;8.80;;;-0.90;99.90;;;;;;5110656;28;20305;-72
2022/12/11 06:31:44;;;;;;;11.03;8.87;;;-0.90;99.90;;;;;;5092345;28;20320;-72
2022/12/11 06:34:13;;;;;;;11.23;8.67;;;-0.90;99.90;;;;;;5090401;28;20306;-72
2022/12/11 06:36:41;;;;;;;12.23;9.10;;;-0.90;99.90;;;;;;5091263;28;20209;-72
2022/12/11 06:39:08;;;;;;;11.77;8.83;;;-0.90;99.90;;;;;;5090071;28;20300;-72
2022/12/11 06:41:35;;;;;;;9.37;8.13;;;-0.90;99.90;;;;;;5090043;28;20230;-72
2022/12/11 06:44:02;;;;;;;12.47;8.30;;;-0.90;99.90;;;;;;5110330;28;20241;-72
2022/12/11 06:46:29;;;;;;;9.13;7.97;;;-0.90;99.90;;;;;;5110146;28;20222;-72
2022/12/11 06:48:56;;;;;;;10.10;8.10;;;-0.90;99.90;;;;;;5091555;28;20199;-72
2022/12/11 06:51:23;;;;;;;10.77;8.07;;;-0.90;99.90;;;;;;5105967;28;20295;-72
2022/12/11 06:53:56;;;;;;;12.40;8.40;;;-0.90;99.90;;;;;;5096329;28;20288;-72
2022/12/11 06:56:24;;;;;;;10.37;8.20;;;-0.90;99.90;;;;;;5110558;28;20293;-71
2022/12/11 06:58:51;;;;;;;11.53;8.43;;;-0.90;99.90;;;;;;5110238;28;20285;-72
2022/12/11 07:01:20;;;;;;;11.07;8.47;;;-0.90;99.90;;;;;;5110375;28;20235;-72
2022/12/11 07:03:47;;;;;;;10.80;8.50;;;-0.90;99.90;;;;;;5110217;28;20307;-72
2022/12/11 07:06:14;;;;;;;12.37;8.80;;;-0.80;99.90;;;;;;5100409;28;20870;-72
2022/12/11 07:08:41;;;;;;;12.37;8.60;;;-0.90;99.90;;;;;;5105878;28;20296;-72
2022/12/11 07:11:11;;;;;;;12.90;9.13;;;-0.90;99.90;;;;;;5109654;28;20255;-72
2022/12/11 07:13:39;;;;;;;11.63;8.37;;;-0.90;99.90;;;;;;5105004;28;20293;-72
2022/12/11 07:16:09;;;;;;;11.80;8.67;;;-0.90;99.90;;;;;;5104215;28;20230;-72
2022/12/11 07:18:37;;;;;;;11.40;8.33;;;-0.80;99.90;;;;;;5097213;28;20201;-72
2022/12/11 07:21:04;;;;;;;8.93;8.03;;;-0.90;99.90;;;;;;5101923;28;20221;-72
2022/12/11 07:23:31;;;;;;;9.57;7.80;;;-0.80;99.90;;;;;;5110094;28;20244;-72
2022/12/11 07:25:58;;;;;;;9.20;7.83;;;-0.90;99.90;;;;;;5109572;28;20233;-72
2022/12/11 07:28:26;;;;;;;10.13;7.40;;;-0.90;99.90;;;;;;5109462;28;20758;-72
2022/12/11 07:30:53;;;;;;;9.17;8.17;;;-0.90;99.90;;;;;;5093119;28;20294;-72
2022/12/11 07:33:24;;;;;;;10.60;7.90;;;-0.90;99.90;;;;;;5099893;28;20229;-72
2022/12/11 07:35:51;;;;;;;8.60;7.03;;;-0.90;99.90;;;;;;5109943;28;20628;-71
2022/12/11 07:38:18;;;;;;;7.77;6.73;;;-0.90;99.90;;;;;;5109367;28;20649;-72
2022/12/11 07:40:45;;;;;;;8.00;6.90;;;-1.00;99.90;;;;;;5108857;28;20325;-72
2022/12/11 07:43:12;;;;;;;9.17;7.17;;;-1.00;99.90;;;;;;5109381;28;20741;-72
2022/12/11 07:45:40;;;;;;;8.40;6.57;;;-1.00;99.90;;;;;;5109656;28;20647;-72
2022/12/11 07:48:07;;;;;;;7.70;6.90;;;-1.00;99.90;;;;;;5104996;28;20234;-72
2022/12/11 07:50:34;;;;;;;8.07;7.13;;;-1.00;99.90;;;;;;5097859;28;20259;-71
2022/12/11 07:53:01;;;;;;;7.27;6.50;;;-1.00;99.90;;;;;;5108689;28;20288;-72
2022/12/11 07:55:28;;;;;;;7.57;6.37;;;-1.00;99.90;;;;;;5088522;28;20194;-72
2022/12/11 07:57:55;;;;;;;8.13;6.77;;;-1.00;99.90;;;;;;5088908;28;20253;-71
2022/12/11 08:00:22;;;;;;;8.80;7.30;;;-1.00;99.90;;;;;;5089046;28;20293;-72
2022/12/11 08:02:50;;;;;;;7.37;6.13;;;-1.00;99.90;;;;;;5088727;28;20289;-72
2022/12/11 08:05:17;;;;;;;8.93;6.33;;;-1.00;99.90;;;;;;5106521;28;20610;-71
2022/12/11 08:07:44;;;;;;;7.00;6.30;;;-1.00;99.90;;;;;;5088551;28;20265;-72
2022/12/11 08:10:11;;;;;;;8.73;6.83;;;-1.00;99.90;;;;;;5095631;28;20205;-72
2022/12/11 08:12:38;;;;;;;8.17;6.47;;;-1.00;99.90;;;;;;5108454;28;20215;-72
2022/12/11 08:15:06;;;;;;;8.63;6.70;;;-1.00;99.90;;;;;;5107007;28;20312;-71
2022/12/11 08:17:33;;;;;;;9.77;6.27;;;-1.00;99.90;;;;;;5106457;28;20288;-72
2022/12/11 08:20:02;;;;;;;7.53;6.73;;;-1.00;99.90;;;;;;5108917;28;20213;-72
2022/12/11 08:22:28;;;;;;;8.53;6.53;;;-1.00;99.90;;;;;;5099496;28;20245;-73
2022/12/11 08:24:55;;;;;;;7.57;6.70;;;-1.00;99.90;;;;;;5088356;28;20245;-74
2022/12/11 08:27:22;;;;;;;7.83;6.40;;;-1.00;99.90;;;;;;5088060;28;20287;-72
2022/12/11 08:29:49;;;;;;;7.13;5.93;;;-1.00;99.90;;;;;;5096284;28;20210;-72
2022/12/11 08:32:16;;;;;;;6.60;5.53;;;-0.90;99.90;;;;;;5100381;28;20752;-72
2022/12/11 08:34:43;;;;;;;7.13;6.00;;;-1.00;99.90;;;;;;5100771;28;20660;-72
2022/12/11 08:37:12;;;;;;;7.47;6.07;;;-0.90;99.90;;;;;;5108652;28;20216;-72
2022/12/11 08:39:39;;;;;;;8.47;6.73;;;-0.90;99.90;;;;;;5107788;28;20296;-72
2022/12/11 08:42:07;;;;;;;7.23;6.47;;;-0.90;99.90;;;;;;5106653;28;20185;-72
2022/12/11 08:44:34;;;;;;;7.40;6.50;;;-0.90;99.90;;;;;;5097510;28;20267;-72
2022/12/11 08:47:00;;;;;;;7.93;6.63;;;-0.90;99.90;;;;;;5105918;28;20320;-72
2022/12/11 08:49:27;;;;;;;6.60;5.97;;;-0.90;99.90;;;;;;5088046;28;20479;-71
2022/12/11 08:51:54;;;;;;;8.03;6.27;;;-0.90;99.90;;;;;;5108338;28;20292;-72
2022/12/11 08:54:22;;;;;;;8.27;6.40;;;-0.90;99.90;;;;;;5103707;28;20201;-72
2022/12/11 08:56:49;;;;;;;7.57;6.77;;;-0.90;99.90;;;;;;5108502;28;20244;-71
2022/12/11 08:59:17;;;;;;;8.67;6.47;;;-0.90;99.90;;;;;;5108427;28;20248;-72
2022/12/11 09:01:44;;;;;;;6.63;6.03;;;-0.90;99.90;;;;;;5108245;28;20222;-72
2022/12/11 09:04:11;;;;;;;7.43;6.63;;;-0.90;99.90;;;;;;5108403;28;20213;-72
2022/12/11 09:06:37;;;;;;;7.87;6.40;;;-0.90;99.90;;;;;;5104477;28;20229;-72
2022/12/11 09:09:05;;;;;;;6.90;6.23;;;-0.90;99.90;;;;;;5108102;28;20233;-72
2022/12/11 09:11:35;;;;;;;8.90;6.20;;;-0.80;99.90;;;;;;5108292;28;20235;-71
2022/12/11 09:14:02;;;;;;;7.87;6.07;;;-0.80;99.90;;;;;;5107767;28;20870;-72
2022/12/11 09:16:30;;;;;;;8.77;6.50;;;-0.80;99.90;;;;;;5107986;28;20678;-72
2022/12/11 09:18:58;;;;;;;7.07;6.37;;;-0.80;99.90;;;;;;5106946;28;20247;-72
2022/12/11 09:21:29;;;;;;;7.57;6.33;;;-0.80;99.90;;;;;;5107843;28;20312;-72
2022/12/11 09:23:58;;;;;;;8.30;6.80;;;-0.90;99.90;;;;;;5087583;28;20292;-72
2022/12/11 09:26:25;;;;;;;8.30;6.00;;;-0.80;99.90;;;;;;5087884;28;20351;-72
2022/12/11 09:28:54;;;;;;;7.33;6.37;;;-0.80;99.90;;;;;;5087671;28;20305;-72
2022/12/11 09:31:23;;;;;;;6.87;6.17;;;-0.80;99.90;;;;;;5099014;28;20294;-71
2022/12/11 09:33:51;;;;;;;9.83;6.40;;;-0.80;99.90;;;;;;5087355;28;20764;-72
2022/12/11 09:36:18;;;;;;;6.50;5.90;;;-0.80;99.90;;;;;;5087186;28;20207;-72
2022/12/11 09:38:45;;;;;;;7.67;6.70;;;-0.70;99.90;;;;;;5087323;28;20293;-72
2022/12/11 09:41:33;;;;;;;8.13;6.37;;;-0.80;99.90;;;;;;5086641;28;20321;-72
2022/12/11 09:44:07;;;;;;;7.17;6.07;;;-0.80;99.90;;;;;;5092393;28;20194;-72
2022/12/11 09:46:35;;;;;;;6.43;5.60;;;-0.80;99.90;;;;;;5111977;28;20217;-72
2022/12/11 09:49:04;;;;;;;7.23;5.87;;;-0.70;99.90;;;;;;5092157;28;20289;-71
2022/12/11 09:51:39;;;;;;;7.67;6.63;;;-0.70;99.90;;;;;;5108390;28;20305;-72
2022/12/11 09:54:06;;;;;;;7.43;6.40;;;-0.70;99.90;;;;;;5106662;28;20802;-72
2022/12/11 09:56:39;;;;;;;9.83;5.97;;;-0.70;99.90;;;;;;5100182;28;20300;-71
2022/12/11 09:59:16;;;;;;;7.40;6.30;;;-0.70;99.90;;;;;;5111567;28;20194;-72
2022/12/11 10:01:50;;;;;;;8.30;5.53;;;-0.70;99.90;;;;;;5111654;28;20192;-72
2022/12/11 10:04:33;;;;;;;8.07;6.33;;;-0.70;99.90;;;;;;5108326;28;20818;-72
2022/12/11 10:07:11;;;;;;;10.33;5.83;;;-0.70;99.90;;;;;;5092305;28;20214;-71
2022/12/11 10:09:49;;;;;;;8.73;6.53;;;-0.70;99.90;;;;;;5090864;28;20191;-72
2022/12/11 10:12:27;;;;;;;9.77;6.40;;;-0.70;99.90;;;;;;5090794;28;20186;-72
2022/12/11 10:15:15;;;;;;;7.53;6.57;;;-0.70;99.90;;;;;;5090606;28;20265;-72
2022/12/11 10:17:44;;;;;;;8.63;6.70;;;-0.70;99.90;;;;;;5090991;28;20245;-72
2022/12/11 10:20:20;;;;;;;8.90;6.60;;;-0.70;99.90;;;;;;5110708;28;20211;-72
2022/12/11 10:22:48;;;;;;;10.13;6.87;;;-0.70;99.90;;;;;;5099273;28;20205;-72
2022/12/11 10:25:20;;;;;;;7.93;6.40;;;-0.70;99.90;;;;;;5090516;28;20205;-72
2022/12/11 10:27:49;;;;;;;7.17;6.47;;;-0.70;99.90;;;;;;5092987;28;20634;-72
2022/12/11 10:30:22;;;;;;;6.40;5.80;;;-0.70;99.90;;;;;;5091493;28;20214;-72
2022/12/11 10:32:53;;;;;;;8.27;6.43;;;-0.70;99.90;;;;;;5110964;28;20630;-72
2022/12/11 10:35:31;;;;;;;7.07;6.00;;;-0.70;99.90;;;;;;5111000;28;20197;-72
2022/12/11 10:38:10;;;;;;;6.60;6.00;;;-0.70;99.90;;;;;;5101202;28;20308;-72
2022/12/11 10:40:38;;;;;;;7.00;6.17;;;-0.70;99.90;;;;;;5089795;28;20334;-72
2022/12/11 10:43:05;;;;;;;7.97;6.63;;;-0.70;99.90;;;;;;5090170;28;20289;-72
2022/12/11 10:45:33;;;;;;;8.53;6.33;;;-0.60;99.90;;;;;;5091480;28;20286;-72
2022/12/11 10:48:05;;;;;;;8.67;6.13;;;-0.60;99.90;;;;;;5089510;28;20845;-72
2022/12/11 10:50:33;;;;;;;7.67;6.10;;;-0.60;99.90;;;;;;5098818;28;20804;-72
2022/12/11 10:53:00;;;;;;;7.33;6.13;;;-0.60;99.90;;;;;;5110422;28;20688;-72
2022/12/11 10:55:30;;;;;;;6.47;5.73;;;-0.60;99.90;;;;;;5099145;28;20191;-72
2022/12/11 10:58:00;;;;;;;7.43;5.73;;;-0.60;99.90;;;;;;5107729;28;20285;-72
2022/12/11 11:00:39;;;;;;;8.77;6.27;;;-0.60;99.90;;;;;;5100250;28;20285;-71
2022/12/11 11:03:19;;;;;;;8.23;6.20;;;-0.60;99.90;;;;;;5089703;28;20850;-71
2022/12/11 11:05:46;;;;;;;7.17;5.70;;;-0.60;99.90;;;;;;5089921;28;20285;-72
2022/12/11 11:08:18;;;;;;;7.20;6.50;;;-0.60;99.90;;;;;;5103824;28;20278;-72
2022/12/11 11:10:56;;;;;;;6.93;6.23;;;-0.60;99.90;;;;;;5109889;28;20662;-72
2022/12/11 11:13:25;;;;;;;7.93;6.30;;;-0.60;99.90;;;;;;5109826;28;20280;-72
2022/12/11 11:16:01;;;;;;;7.23;6.17;;;-0.60;99.90;;;;;;5101189;28;20802;-72
2022/12/11 11:18:30;;;;;;;7.37;6.30;;;-0.60;99.90;;;;;;5089736;28;20665;-72
2022/12/11 11:20:58;;;;;;;8.37;6.00;;;-0.60;99.90;;;;;;5101503;28;20209;-72
2022/12/11 11:23:25;;;;;;;7.07;6.27;;;-0.70;99.90;;;;;;5109626;28;20301;-72
2022/12/11 11:25:55;;;;;;;7.50;5.87;;;-0.60;99.90;;;;;;5110031;28;20296;-72
2022/12/11 11:28:25;;;;;;;6.97;6.23;;;-0.60;99.90;;;;;;5109773;28;20319;-72
2022/12/11 11:31:01;;;;;;;9.97;6.40;;;-0.60;99.90;;;;;;5108527;28;20613;-72
2022/12/11 11:33:29;;;;;;;6.67;5.70;;;-0.60;99.90;;;;;;5097041;28;20252;-72
2022/12/11 11:35:59;;;;;;;8.27;6.40;;;-0.60;99.90;;;;;;5089698;28;20294;-72
2022/12/11 11:38:29;;;;;;;7.87;6.03;;;-0.60;99.90;;;;;;5089524;28;20588;-72
2022/12/11 11:41:05;;;;;;;6.90;6.20;;;-0.60;99.90;;;;;;5088888;28;20353;-72
2022/12/11 11:43:39;;;;;;;6.37;5.70;;;-0.60;99.90;;;;;;5089602;28;20201;-72
2022/12/11 11:46:13;;;;;;;7.67;6.13;;;-0.70;99.90;;;;;;5089156;28;20191;-72
2022/12/11 11:48:48;;;;;;;6.10;5.50;;;-0.70;99.90;;;;;;5094219;28;20226;-72
2022/12/11 11:51:19;;;;;;;7.67;6.13;;;-0.70;99.90;;;;;;5109296;28;20300;-72
2022/12/11 11:53:49;;;;;;;8.93;6.50;;;-0.70;99.90;;;;;;5109418;28;20724;-72
2022/12/11 11:56:25;;;;;;;7.40;6.30;;;-0.60;99.90;;;;;;5103243;28;20281;-72
2022/12/11 11:59:01;;;;;;;8.87;6.23;;;-0.50;99.90;;;;;;5109406;28;20754;-71
2022/12/11 12:01:30;;;;;;;6.73;5.97;;;-0.50;99.90;;;;;;5109260;28;20190;-72
2022/12/11 12:03:58;;;;;;;7.67;6.73;;;-0.50;99.90;;;;;;5108901;28;20206;-72
2022/12/11 12:06:38;;;;;;;7.60;6.67;;;-0.50;99.90;;;;;;5108617;28;20293;-72
2022/12/11 12:09:17;;;;;;;7.57;5.70;;;-0.40;99.90;;;;;;5100709;28;20195;-72
2022/12/11 12:11:52;;;;;;;8.87;6.13;;;-0.40;99.90;;;;;;5106219;28;20293;-72
2022/12/11 12:14:25;;;;;;;6.83;5.97;;;-0.40;99.90;;;;;;5108477;28;20253;-72
2022/12/11 12:17:04;;;;;;;6.73;6.00;;;-0.40;99.90;;;;;;5108748;28;20617;-72
2022/12/11 12:19:50;;;;;;;7.23;6.53;;;-0.30;99.90;;;;;;5103549;28;20648;-72
2022/12/11 12:22:30;;;;;;;8.30;6.47;;;-0.40;99.90;;;;;;5106693;28;20912;-72
2022/12/11 12:25:10;;;;;;;6.73;6.07;;;-0.40;99.90;;;;;;5108560;28;20201;-72
2022/12/11 12:27:44;;;;;;;6.97;6.23;;;-0.50;99.90;;;;;;5108700;28;20249;-72
2022/12/11 12:30:15;;;;;;;7.30;6.27;;;-0.50;99.90;;;;;;5101464;28;20290;-71
2022/12/11 12:32:56;;;;;;;6.80;6.03;;;-0.50;99.90;;;;;;5089563;28;20227;-72
2022/12/11 12:35:33;;;;;;;6.90;6.13;;;-0.60;99.90;;;;;;5088090;28;20278;-72
2022/12/11 12:38:06;;;;;;;8.13;6.60;;;-0.60;99.90;;;;;;5088149;28;20194;-72
2022/12/11 12:40:40;;;;;;;6.70;6.10;;;-0.60;99.90;;;;;;5087541;28;20265;-72
2022/12/11 12:43:23;;;;;;;7.90;6.27;;;-0.60;99.90;;;;;;5087901;28;20252;-72
2022/12/11 12:45:59;;;;;;;7.70;6.43;;;-0.50;99.90;;;;;;5088290;28;20600;-71
2022/12/11 12:48:29;;;;;;;6.97;6.27;;;-0.50;99.90;;;;;;5087514;28;20767;-71
2022/12/11 12:50:56;;;;;;;8.53;6.77;;;-0.40;99.90;;;;;;5096899;28;20632;-71
2022/12/11 12:53:27;;;;;;;7.77;6.20;;;-0.40;99.90;;;;;;5087710;28;20566;-71
2022/12/11 12:55:55;;;;;;;7.37;6.40;;;-0.30;99.90;;;;;;5089634;28;20194;-71
2022/12/11 12:58:27;;;;;;;7.67;6.57;;;-0.30;99.90;;;;;;5097186;28;20644;-71
2022/12/11 13:00:55;;;;;;;9.37;6.90;;;-0.30;99.90;;;;;;5094089;28;20194;-71
2022/12/11 13:03:25;;;;;;;9.47;6.13;;;-0.30;99.90;;;;;;5108250;28;20209;-71